sensor_id;sensor_type;location;lat;lon;timestamp;temperature;humidity
7204;DHT22;3643;52.460;13.322;2022-10-31T03:50:40;10.80;99.90
7204;DHT22;3643;52.460;13.322;2022-10-31T03:53:15;10.80;99.90
7204;DHT22;3643;52.460;13.322;2022-10-31T03:55:49;10.90;99.90
7204;DHT22;3643;52.460;13.322;2022-10-31T03:58:21;10.90;99.90
7204;DHT22;3643;52.460;13.322;2022-10-31T04:00:54;10.90;99.90
7204;DHT22;3643;52.460;13.322;2022-10-31T04:03:26;10.90;99.90
7204;DHT22;3643;52.460;13.322;2022-10-31T04:05:59;10.80;99.90
7204;DHT22;3643;52.460;13.322;2022-10-31T04:08:32;10.80;99.90
7204;DHT22;3643;52.460;13.322;2022-10-31T04:11:03;10.80;99.90
7204;DHT22;3643;52.460;13.322;2022-10-31T04:13:35;10.80;99.90
7204;DHT22;3643;52.460;13.322;2022-10-31T04:16:06;10.80;99.90
7204;DHT22;3643;52.460;13.322;2022-10-31T04:18:42;10.90;99.90
7204;DHT22;3643;52.460;13.322;2022-10-31T04:21:12;10.80;99.90
7204;DHT22;3643;52.460;13.322;2022-10-31T04:23:42;10.80;99.90
7204;DHT22;3643;52.460;13.322;2022-10-31T04:26:12;10.90;99.90
7204;DHT22;3643;52.460;13.322;2022-10-31T04:28:41;10.90;99.90
7204;DHT22;3643;52.460;13.322;2022-10-31T04:31:11;10.90;99.90
7204;DHT22;3643;52.460;13.322;2022-10-31T04:33:40;10.90;99.90
7204;DHT22;3643;52.460;13.322;2022-10-31T04:36:10;10.90;99.90
7204;DHT22;3643;52.460;13.322;2022-10-31T04:38:40;10.90;99.90
7204;DHT22;3643;52.460;13.322;2022-10-31T04:41:08;10.90;99.90
7204;DHT22;3643;52.460;13.322;2022-10-31T04:43:37;10.90;99.90
7204;DHT22;3643;52.460;13.322;2022-10-31T04:46:05;10.80;99.90
7204;DHT22;3643;52.460;13.322;2022-10-31T04:48:34;10.90;99.90
7204;DHT22;3643;52.460;13.322;2022-10-31T04:51:03;10.90;99.90
7204;DHT22;3643;52.460;13.322;2022-10-31T04:53:32;10.80;99.90
7204;DHT22;3643;52.460;13.322;2022-10-31T04:56:01;10.80;99.90
7204;DHT22;3643;52.460;13.322;2022-10-31T04:58:30;10.80;99.90
7204;DHT22;3643;52.460;13.322;2022-10-31T05:00:58;10.80;99.90
7204;DHT22;3643;52.460;13.322;2022-10-31T05:03:27;10.80;99.90
7204;DHT22;3643;52.460;13.322;2022-10-31T05:05:55;10.80;99.90
7204;DHT22;3643;52.460;13.322;2022-10-31T05:08:24;10.70;99.90
7204;DHT22;3643;52.460;13.322;2022-10-31T05:10:52;10.70;99.90
7204;DHT22;3643;52.460;13.322;2022-10-31T05:13:22;10.70;99.90
7204;DHT22;3643;52.460;13.322;2022-10-31T05:15:50;10.70;99.90
7204;DHT22;3643;52.460;13.322;2022-10-31T05:18:18;10.70;99.90
7204;DHT22;3643;52.460;13.322;2022-10-31T05:20:47;10.70;99.90
7204;DHT22;3643;52.460;13.322;2022-10-31T05:23:15;10.70;99.90
7204;DHT22;3643;52.460;13.322;2022-10-31T05:25:44;10.70;99.90
7204;DHT22;3643;52.460;13.322;2022-10-31T05:28:12;10.70;99.90
7204;DHT22;3643;52.460;13.322;2022-10-31T05:30:42;10.70;99.90
7204;DHT22;3643;52.460;13.322;2022-10-31T05:33:10;10.60;99.90
7204;DHT22;3643;52.460;13.322;2022-10-31T05:35:38;10.60;99.90
7204;DHT22;3643;52.460;13.322;2022-10-31T05:38:07;10.50;99.90
7204;DHT22;3643;52.460;13.322;2022-10-31T05:40:35;10.60;99.90
7204;DHT22;3643;52.460;13.322;2022-10-31T05:43:03;10.60;99.90
7204;DHT22;3643;52.460;13.322;2022-10-31T05:45:32;10.60;99.90
7204;DHT22;3643;52.460;13.322;2022-10-31T05:48:02;10.60;99.90
7204;DHT22;3643;52.460;13.322;2022-10-31T05:50:31;10.60;99.90
7204;DHT22;3643;52.460;13.322;2022-10-31T05:53:02;10.60;99.90
7204;DHT22;3643;52.460;13.322;2022-10-31T05:55:31;10.60;99.90
7204;DHT22;3643;52.460;13.322;2022-10-31T05:58:00;10.60;99.90
7204;DHT22;3643;52.460;13.322;2022-10-31T06:00:29;10.60;99.90
7204;DHT22;3643;52.460;13.322;2022-10-31T06:02:58;10.60;99.90
7204;DHT22;3643;52.460;13.322;2022-10-31T06:05:29;10.60;99.90
7204;DHT22;3643;52.460;13.322;2022-10-31T06:07:58;10.60;99.90
7204;DHT22;3643;52.460;13.322;2022-10-31T06:10:27;10.60;99.90
7204;DHT22;3643;52.460;13.322;2022-10-31T06:12:56;10.60;99.90
7204;DHT22;3643;52.460;13.322;2022-10-31T06:15:24;10.60;99.90
7204;DHT22;3643;52.460;13.322;2022-10-31T06:18:00;10.70;99.90
7204;DHT22;3643;52.460;13.322;2022-10-31T06:20:32;10.70;99.90
7204;DHT22;3643;52.460;13.322;2022-10-31T06:23:01;10.80;99.90
7204;DHT22;3643;52.460;13.322;2022-10-31T06:25:30;10.90;99.90
7204;DHT22;3643;52.460;13.322;2022-10-31T06:28:00;10.90;99.90
7204;DHT22;3643;52.460;13.322;2022-10-31T06:30:28;11.00;99.90
7204;DHT22;3643;52.460;13.322;2022-10-31T06:33:02;11.00;99.90
7204;DHT22;3643;52.460;13.322;2022-10-31T06:35:39;11.10;99.90
7204;DHT22;3643;52.460;13.322;2022-10-31T06:38:12;11.20;99.90
7204;DHT22;3643;52.460;13.322;2022-10-31T06:40:41;11.20;99.90
7204;DHT22;3643;52.460;13.322;2022-10-31T06:43:11;11.30;99.90
7204;DHT22;3643;52.460;13.322;2022-10-31T06:45:41;11.30;99.90
7204;DHT22;3643;52.460;13.322;2022-10-31T06:48:10;11.40;99.90
7204;DHT22;3643;52.460;13.322;2022-10-31T06:50:45;11.40;99.90
7204;DHT22;3643;52.460;13.322;2022-10-31T06:53:14;11.50;99.90
7204;DHT22;3643;52.460;13.322;2022-10-31T06:55:42;11.50;99.90
7204;DHT22;3643;52.460;13.322;2022-10-31T06:58:11;11.60;99.90
7204;DHT22;3643;52.460;13.322;2022-10-31T07:00:40;11.60;99.90
7204;DHT22;3643;52.460;13.322;2022-10-31T07:03:11;11.70;99.90
7204;DHT22;3643;52.460;13.322;2022-10-31T07:05:40;11.80;99.90
7204;DHT22;3643;52.460;13.322;2022-10-31T07:08:12;11.90;99.90
7204;DHT22;3643;52.460;13.322;2022-10-31T07:10:42;12.00;99.90
7204;DHT22;3643;52.460;13.322;2022-10-31T07:13:13;12.20;99.90
7204;DHT22;3643;52.460;13.322;2022-10-31T07:15:43;12.30;99.90
7204;DHT22;3643;52.460;13.322;2022-10-31T07:18:13;12.40;99.90
7204;DHT22;3643;52.460;13.322;2022-10-31T07:20:42;12.60;99.90
7204;DHT22;3643;52.460;13.322;2022-10-31T07:23:13;11.70;99.90
7204;DHT22;3643;52.460;13.322;2022-10-31T07:25:41;12.90;99.90
7204;DHT22;3643;52.460;13.322;2022-10-31T07:28:11;13.00;99.90
7204;DHT22;3643;52.460;13.322;2022-10-31T07:30:40;13.10;99.90
7204;DHT22;3643;52.460;13.322;2022-10-31T07:33:08;13.10;99.90
7204;DHT22;3643;52.460;13.322;2022-10-31T07:35:37;13.30;99.90
7204;DHT22;3643;52.460;13.322;2022-10-31T07:38:11;13.50;99.90
7204;DHT22;3643;52.460;13.322;2022-10-31T07:40:40;13.60;99.90
7204;DHT22;3643;52.460;13.322;2022-10-31T07:43:10;13.80;99.90
7204;DHT22;3643;52.460;13.322;2022-10-31T07:45:41;14.00;99.90
7204;DHT22;3643;52.460;13.322;2022-10-31T07:48:13;14.10;99.90
7204;DHT22;3643;52.460;13.322;2022-10-31T07:50:42;14.20;99.90
7204;DHT22;3643;52.460;13.322;2022-10-31T07:53:13;14.40;99.90
7204;DHT22;3643;52.460;13.322;2022-10-31T07:55:43;14.40;99.90
7204;DHT22;3643;52.460;13.322;2022-10-31T07:58:14;14.50;99.90
7204;DHT22;3643;52.460;13.322;2022-10-31T08:00:46;14.50;99.90
7204;DHT22;3643;52.460;13.322;2022-10-31T08:03:16;14.60;99.90
7204;DHT22;3643;52.460;13.322;2022-10-31T08:05:45;14.60;99.90
7204;DHT22;3643;52.460;13.322;2022-10-31T08:08:15;14.60;99.90
7204;DHT22;3643;52.460;13.322;2022-10-31T08:10:44;14.60;99.90
7204;DHT22;3643;52.460;13.322;2022-10-31T08:13:14;14.60;99.90
7204;DHT22;3643;52.460;13.322;2022-10-31T08:15:42;14.60;99.90
7204;DHT22;3643;52.460;13.322;2022-10-31T08:18:13;14.50;99.90
7204;DHT22;3643;52.460;13.322;2022-10-31T08:20:42;14.50;99.90
7204;DHT22;3643;52.460;13.322;2022-10-31T08:23:12;14.50;99.90
7204;DHT22;3643;52.460;13.322;2022-10-31T08:25:43;14.50;99.90
7204;DHT22;3643;52.460;13.322;2022-10-31T08:28:14;14.50;99.90
7204;DHT22;3643;52.460;13.322;2022-10-31T08:30:43;14.50;99.90
7204;DHT22;3643;52.460;13.322;2022-10-31T08:33:16;14.50;99.90
7204;DHT22;3643;52.460;13.322;2022-10-31T08:35:45;14.50;99.90
7204;DHT22;3643;52.460;13.322;2022-10-31T08:38:14;14.50;99.90
7204;DHT22;3643;52.460;13.322;2022-10-31T08:40:48;14.60;99.90
7204;DHT22;3643;52.460;13.322;2022-10-31T08:43:18;14.60;99.90
7204;DHT22;3643;52.460;13.322;2022-10-31T08:45:49;14.60;99.90
7204;DHT22;3643;52.460;13.322;2022-10-31T08:48:18;14.60;99.90
7204;DHT22;3643;52.460;13.322;2022-10-31T08:50:46;14.60;99.90
7204;DHT22;3643;52.460;13.322;2022-10-31T08:53:16;14.50;99.90
7204;DHT22;3643;52.460;13.322;2022-10-31T08:55:47;14.50;99.90
7204;DHT22;3643;52.460;13.322;2022-10-31T08:58:18;14.60;99.90
7204;DHT22;3643;52.460;13.322;2022-10-31T09:00:50;14.50;99.90
7204;DHT22;3643;52.460;13.322;2022-10-31T09:03:20;14.50;99.90
7204;DHT22;3643;52.460;13.322;2022-10-31T09:05:50;14.50;99.90
7204;DHT22;3643;52.460;13.322;2022-10-31T09:08:18;14.50;99.90
7204;DHT22;3643;52.460;13.322;2022-10-31T09:10:48;14.50;99.90
7204;DHT22;3643;52.460;13.322;2022-10-31T09:13:19;14.50;99.90
7204;DHT22;3643;52.460;13.322;2022-10-31T09:15:52;14.30;99.90
7204;DHT22;3643;52.460;13.322;2022-10-31T09:18:22;14.30;99.90
7204;DHT22;3643;52.460;13.322;2022-10-31T09:20:52;14.30;99.90
7204;DHT22;3643;52.460;13.322;2022-10-31T09:23:22;14.30;99.90
7204;DHT22;3643;52.460;13.322;2022-10-31T09:25:53;14.30;99.90
7204;DHT22;3643;52.460;13.322;2022-10-31T09:28:23;14.40;99.90
7204;DHT22;3643;52.460;13.322;2022-10-31T09:30:57;14.40;99.90
7204;DHT22;3643;52.460;13.322;2022-10-31T09:33:26;14.20;99.90
7204;DHT22;3643;52.460;13.322;2022-10-31T09:35:54;14.50;99.90
7204;DHT22;3643;52.460;13.322;2022-10-31T09:38:24;14.50;99.90
7204;DHT22;3643;52.460;13.322;2022-10-31T09:41:01;14.50;99.90
7204;DHT22;3643;52.460;13.322;2022-10-31T09:43:44;14.50;99.90
7204;DHT22;3643;52.460;13.322;2022-10-31T09:46:23;14.50;99.90
7204;DHT22;3643;52.460;13.322;2022-10-31T09:49:20;14.60;99.90
7204;DHT22;3643;52.460;13.322;2022-10-31T09:51:57;14.60;99.90
7204;DHT22;3643;52.460;13.322;2022-10-31T09:54:32;14.60;99.90
7204;DHT22;3643;52.460;13.322;2022-10-31T09:57:04;14.70;99.90
7204;DHT22;3643;52.460;13.322;2022-10-31T09:59:41;14.70;99.90
7204;DHT22;3643;52.460;13.322;2022-10-31T10:02:25;14.80;99.90
7204;DHT22;3643;52.460;13.322;2022-10-31T10:04:59;15.00;99.90
7204;DHT22;3643;52.460;13.322;2022-10-31T10:07:35;15.10;99.90
7204;DHT22;3643;52.460;13.322;2022-10-31T10:10:16;15.20;99.90
7204;DHT22;3643;52.460;13.322;2022-10-31T10:13:03;15.30;99.90
7204;DHT22;3643;52.460;13.322;2022-10-31T10:19:00;15.30;99.90
7204;DHT22;3643;52.460;13.322;2022-10-31T10:21:39;15.30;99.90
7204;DHT22;3643;52.460;13.322;2022-10-31T10:24:22;15.40;99.90
7204;DHT22;3643;52.460;13.322;2022-10-31T10:27:01;15.40;99.90
7204;DHT22;3643;52.460;13.322;2022-10-31T10:29:39;15.50;99.90
7204;DHT22;3643;52.460;13.322;2022-10-31T10:32:12;15.60;99.90
7204;DHT22;3643;52.460;13.322;2022-10-31T10:34:46;15.70;99.90
7204;DHT22;3643;52.460;13.322;2022-10-31T10:37:26;15.70;99.90
7204;DHT22;3643;52.460;13.322;2022-10-31T10:40:07;15.60;99.90
7204;DHT22;3643;52.460;13.322;2022-10-31T10:42:37;15.80;99.90
7204;DHT22;3643;52.460;13.322;2022-10-31T10:45:24;15.90;99.90
7204;DHT22;3643;52.460;13.322;2022-10-31T10:48:15;16.00;99.90
7204;DHT22;3643;52.460;13.322;2022-10-31T10:50:48;16.10;99.90
7204;DHT22;3643;52.460;13.322;2022-10-31T10:53:37;16.20;99.90
7204;DHT22;3643;52.460;13.322;2022-10-31T10:56:20;16.30;99.90
7204;DHT22;3643;52.460;13.322;2022-10-31T10:58:52;16.30;99.90
7204;DHT22;3643;52.460;13.322;2022-10-31T11:01:24;16.40;99.90
7204;DHT22;3643;52.460;13.322;2022-10-31T11:03:52;16.40;99.90
7204;DHT22;3643;52.460;13.322;2022-10-31T11:06:23;16.50;99.90
7204;DHT22;3643;52.460;13.322;2022-10-31T11:08:53;16.50;99.90
7204;DHT22;3643;52.460;13.322;2022-10-31T11:11:26;16.60;99.90
7204;DHT22;3643;52.460;13.322;2022-10-31T11:14:00;15.20;99.90
7204;DHT22;3643;52.460;13.322;2022-10-31T11:16:35;16.70;99.90
7204;DHT22;3643;52.460;13.322;2022-10-31T11:19:13;16.70;99.90
7204;DHT22;3643;52.460;13.322;2022-10-31T11:21:45;16.70;99.90
7204;DHT22;3643;52.460;13.322;2022-10-31T11:24:21;16.80;99.90
7204;DHT22;3643;52.460;13.322;2022-10-31T11:26:51;16.90;99.90
7204;DHT22;3643;52.460;13.322;2022-10-31T11:29:22;17.00;99.90
7204;DHT22;3643;52.460;13.322;2022-10-31T11:31:55;17.00;99.90
7204;DHT22;3643;52.460;13.322;2022-10-31T11:34:30;17.10;99.90
7204;DHT22;3643;52.460;13.322;2022-10-31T11:37:04;17.20;99.90
7204;DHT22;3643;52.460;13.322;2022-10-31T11:39:41;17.20;99.90
7204;DHT22;3643;52.460;13.322;2022-10-31T11:42:11;17.20;99.90
7204;DHT22;3643;52.460;13.322;2022-10-31T11:44:42;17.30;99.90
7204;DHT22;3643;52.460;13.322;2022-10-31T11:47:15;17.30;99.90
7204;DHT22;3643;52.460;13.322;2022-10-31T11:49:46;17.30;99.90
7204;DHT22;3643;52.460;13.322;2022-10-31T11:52:19;17.30;99.90
7204;DHT22;3643;52.460;13.322;2022-10-31T11:54:50;17.30;99.90
7204;DHT22;3643;52.460;13.322;2022-10-31T11:57:26;17.40;99.90
7204;DHT22;3643;52.460;13.322;2022-10-31T11:59:57;17.40;99.90
7204;DHT22;3643;52.460;13.322;2022-10-31T12:02:28;17.40;99.90
7204;DHT22;3643;52.460;13.322;2022-10-31T12:05:02;17.20;99.90
7204;DHT22;3643;52.460;13.322;2022-10-31T12:07:32;17.40;99.90
7204;DHT22;3643;52.460;13.322;2022-10-31T12:10:01;17.50;99.90
7204;DHT22;3643;52.460;13.322;2022-10-31T12:15:30;17.50;99.90
7204;DHT22;3643;52.460;13.322;2022-10-31T12:18:17;17.50;99.90
7204;DHT22;3643;52.460;13.322;2022-10-31T12:21:00;17.50;99.90
7204;DHT22;3643;52.460;13.322;2022-10-31T12:23:41;17.60;99.90
7204;DHT22;3643;52.460;13.322;2022-10-31T12:26:18;17.60;99.90
7204;DHT22;3643;52.460;13.322;2022-10-31T12:29:07;17.60;99.90
7204;DHT22;3643;52.460;13.322;2022-10-31T12:31:57;17.60;99.90
7204;DHT22;3643;52.460;13.322;2022-10-31T12:37:45;17.70;99.90
7204;DHT22;3643;52.460;13.322;2022-10-31T12:40:29;17.70;99.90
7204;DHT22;3643;52.460;13.322;2022-10-31T12:43:14;17.70;99.90
7204;DHT22;3643;52.460;13.322;2022-10-31T12:45:53;17.70;99.90
7204;DHT22;3643;52.460;13.322;2022-10-31T12:48:50;17.70;99.90
7204;DHT22;3643;52.460;13.322;2022-10-31T12:51:33;17.70;99.90
7204;DHT22;3643;52.460;13.322;2022-10-31T12:54:36;17.70;99.90
7204;DHT22;3643;52.460;13.322;2022-10-31T12:57:21;17.70;99.90
7204;DHT22;3643;52.460;13.322;2022-10-31T12:59:53;17.80;99.90
7204;DHT22;3643;52.460;13.322;2022-10-31T13:02:28;17.70;99.90
7204;DHT22;3643;52.460;13.322;2022-10-31T13:05:02;17.80;99.90
7204;DHT22;3643;52.460;13.322;2022-10-31T13:07:36;17.80;99.90
7204;DHT22;3643;52.460;13.322;2022-10-31T13:10:13;17.90;99.90
7204;DHT22;3643;52.460;13.322;2022-10-31T13:12:44;17.80;99.90
7204;DHT22;3643;52.460;13.322;2022-10-31T13:15:17;17.90;99.90
7204;DHT22;3643;52.460;13.322;2022-10-31T13:17:48;17.80;99.90
7204;DHT22;3643;52.460;13.322;2022-10-31T13:20:23;17.80;99.90
7204;DHT22;3643;52.460;13.322;2022-10-31T13:22:56;17.90;99.90
7204;DHT22;3643;52.460;13.322;2022-10-31T13:25:47;17.90;99.90
7204;DHT22;3643;52.460;13.322;2022-10-31T13:28:27;17.80;99.90
7204;DHT22;3643;52.460;13.322;2022-10-31T13:30:57;17.80;99.90
7204;DHT22;3643;52.460;13.322;2022-10-31T13:33:28;17.70;99.90
7204;DHT22;3643;52.460;13.322;2022-10-31T13:36:14;17.70;99.90
7204;DHT22;3643;52.460;13.322;2022-10-31T13:38:49;17.70;99.90
7204;DHT22;3643;52.460;13.322;2022-10-31T13:41:31;17.70;99.90
7204;DHT22;3643;52.460;13.322;2022-10-31T13:44:14;17.60;99.90
7204;DHT22;3643;52.460;13.322;2022-10-31T13:46:44;17.60;99.90
7204;DHT22;3643;52.460;13.322;2022-10-31T13:49:37;17.60;99.90
7204;DHT22;3643;52.460;13.322;2022-10-31T13:52:14;17.60;99.90
7204;DHT22;3643;52.460;13.322;2022-10-31T13:54:46;17.50;99.90
7204;DHT22;3643;52.460;13.322;2022-10-31T13:57:19;17.50;99.90
7204;DHT22;3643;52.460;13.322;2022-10-31T13:59:52;17.50;99.90
7204;DHT22;3643;52.460;13.322;2022-10-31T14:02:26;17.50;99.90
7204;DHT22;3643;52.460;13.322;2022-10-31T14:04:57;17.40;99.90
7204;DHT22;3643;52.460;13.322;2022-10-31T14:07:29;17.40;99.90
7204;DHT22;3643;52.460;13.322;2022-10-31T14:10:03;17.30;99.90
7204;DHT22;3643;52.460;13.322;2022-10-31T14:12:36;17.20;99.90
7204;DHT22;3643;52.460;13.322;2022-10-31T14:15:16;17.20;99.90
7204;DHT22;3643;52.460;13.322;2022-10-31T14:17:48;17.00;99.90
7204;DHT22;3643;52.460;13.322;2022-10-31T14:20:31;16.90;99.90
7204;DHT22;3643;52.460;13.322;2022-10-31T14:23:37;16.90;99.90
7204;DHT22;3643;52.460;13.322;2022-10-31T14:26:20;16.80;99.90
7204;DHT22;3643;52.460;13.322;2022-10-31T14:28:50;16.70;99.90
7204;DHT22;3643;52.460;13.322;2022-10-31T14:31:32;16.60;99.90
7204;DHT22;3643;52.460;13.322;2022-10-31T14:34:21;16.50;99.90
7204;DHT22;3643;52.460;13.322;2022-10-31T14:37:15;16.40;99.90
7204;DHT22;3643;52.460;13.322;2022-10-31T14:40:04;16.30;99.90
7204;DHT22;3643;52.460;13.322;2022-10-31T14:42:54;16.20;99.90
7204;DHT22;3643;52.460;13.322;2022-10-31T14:45:33;16.10;99.90
7204;DHT22;3643;52.460;13.322;2022-10-31T14:50:59;15.90;99.90
7204;DHT22;3643;52.460;13.322;2022-10-31T14:53:31;15.80;99.90
7204;DHT22;3643;52.460;13.322;2022-10-31T14:56:01;15.70;99.90
7204;DHT22;3643;52.460;13.322;2022-10-31T14:58:37;15.60;99.90
7204;DHT22;3643;52.460;13.322;2022-10-31T15:01:07;15.50;99.90
7204;DHT22;3643;52.460;13.322;2022-10-31T15:03:39;15.40;99.90
7204;DHT22;3643;52.460;13.322;2022-10-31T15:06:24;15.40;99.90
7204;DHT22;3643;52.460;13.322;2022-10-31T15:08:54;15.30;99.90
7204;DHT22;3643;52.460;13.322;2022-10-31T15:11:25;15.20;99.90
7204;DHT22;3643;52.460;13.322;2022-10-31T15:13:58;15.10;99.90
7204;DHT22;3643;52.460;13.322;2022-10-31T15:16:31;15.00;99.90
7204;DHT22;3643;52.460;13.322;2022-10-31T15:19:04;14.90;99.90
7204;DHT22;3643;52.460;13.322;2022-10-31T15:21:33;14.80;99.90
7204;DHT22;3643;52.460;13.322;2022-10-31T15:24:04;14.70;99.90
7204;DHT22;3643;52.460;13.322;2022-10-31T15:26:35;14.70;99.90
7204;DHT22;3643;52.460;13.322;2022-10-31T15:29:14;14.60;99.90
7204;DHT22;3643;52.460;13.322;2022-10-31T15:31:54;14.50;99.90
7204;DHT22;3643;52.460;13.322;2022-10-31T15:34:27;14.50;99.90
7204;DHT22;3643;52.460;13.322;2022-10-31T15:36:58;14.40;99.90
7204;DHT22;3643;52.460;13.322;2022-10-31T15:39:27;14.30;99.90
7204;DHT22;3643;52.460;13.322;2022-10-31T15:41:57;14.30;99.90
7204;DHT22;3643;52.460;13.322;2022-10-31T15:44:29;14.20;99.90
7204;DHT22;3643;52.460;13.322;2022-10-31T15:47:01;14.10;99.90
7204;DHT22;3643;52.460;13.322;2022-10-31T15:49:38;14.10;99.90
7204;DHT22;3643;52.460;13.322;2022-10-31T15:52:12;14.00;99.90
7204;DHT22;3643;52.460;13.322;2022-10-31T15:54:50;12.70;99.90
7204;DHT22;3643;52.460;13.322;2022-10-31T15:57:19;13.90;99.90
7204;DHT22;3643;52.460;13.322;2022-10-31T15:59:50;13.80;99.90
7204;DHT22;3643;52.460;13.322;2022-10-31T16:02:22;13.80;99.90
7204;DHT22;3643;52.460;13.322;2022-10-31T16:04:54;13.80;99.90
7204;DHT22;3643;52.460;13.322;2022-10-31T16:07:25;13.70;99.90
7204;DHT22;3643;52.460;13.322;2022-10-31T16:09:58;13.70;99.90
7204;DHT22;3643;52.460;13.322;2022-10-31T16:12:33;13.70;99.90
7204;DHT22;3643;52.460;13.322;2022-10-31T16:15:05;13.60;99.90
7204;DHT22;3643;52.460;13.322;2022-10-31T16:17:35;13.60;99.90
7204;DHT22;3643;52.460;13.322;2022-10-31T16:20:19;13.60;99.90
7204;DHT22;3643;52.460;13.322;2022-10-31T16:22:50;13.60;99.90
7204;DHT22;3643;52.460;13.322;2022-10-31T16:25:24;13.60;99.90
7204;DHT22;3643;52.460;13.322;2022-10-31T16:27:58;13.50;99.90
7204;DHT22;3643;52.460;13.322;2022-10-31T16:30:36;13.60;99.90
7204;DHT22;3643;52.460;13.322;2022-10-31T16:33:28;13.60;99.90
7204;DHT22;3643;52.460;13.322;2022-10-31T16:35:58;13.60;99.90
7204;DHT22;3643;52.460;13.322;2022-10-31T16:38:49;13.60;99.90
7204;DHT22;3643;52.460;13.322;2022-10-31T16:41:18;13.60;99.90
7204;DHT22;3643;52.460;13.322;2022-10-31T16:43:46;13.50;99.90
7204;DHT22;3643;52.460;13.322;2022-10-31T16:46:22;15.20;99.90
7204;DHT22;3643;52.460;13.322;2022-10-31T16:48:54;13.50;99.90
7204;DHT22;3643;52.460;13.322;2022-10-31T16:51:23;13.50;99.90
7204;DHT22;3643;52.460;13.322;2022-10-31T16:53:52;13.50;99.90
7204;DHT22;3643;52.460;13.322;2022-10-31T16:56:26;13.50;99.90
7204;DHT22;3643;52.460;13.322;2022-10-31T16:59:03;13.50;99.90
7204;DHT22;3643;52.460;13.322;2022-10-31T17:01:44;13.50;99.90
7204;DHT22;3643;52.460;13.322;2022-10-31T17:04:20;13.50;99.90
7204;DHT22;3643;52.460;13.322;2022-10-31T17:06:50;13.40;99.90
7204;DHT22;3643;52.460;13.322;2022-10-31T17:09:18;13.40;99.90
7204;DHT22;3643;52.460;13.322;2022-10-31T17:11:49;13.40;99.90
7204;DHT22;3643;52.460;13.322;2022-10-31T17:14:18;13.30;99.90
7204;DHT22;3643;52.460;13.322;2022-10-31T17:16:51;13.30;99.90
7204;DHT22;3643;52.460;13.322;2022-10-31T17:19:27;13.30;99.90
7204;DHT22;3643;52.460;13.322;2022-10-31T17:21:56;13.30;99.90
7204;DHT22;3643;52.460;13.322;2022-10-31T17:24:25;13.30;99.90
7204;DHT22;3643;52.460;13.322;2022-10-31T17:26:54;13.40;99.90
7204;DHT22;3643;52.460;13.322;2022-10-31T17:29:23;13.30;99.90
7204;DHT22;3643;52.460;13.322;2022-10-31T17:31:52;13.30;99.90
7204;DHT22;3643;52.460;13.322;2022-10-31T17:34:21;13.30;99.90
7204;DHT22;3643;52.460;13.322;2022-10-31T17:36:50;13.40;99.90
7204;DHT22;3643;52.460;13.322;2022-10-31T17:39:20;13.40;99.90
7204;DHT22;3643;52.460;13.322;2022-10-31T17:41:49;13.40;99.90
7204;DHT22;3643;52.460;13.322;2022-10-31T17:44:18;13.30;99.90
7204;DHT22;3643;52.460;13.322;2022-10-31T17:46:49;13.30;99.90
7204;DHT22;3643;52.460;13.322;2022-10-31T17:49:24;13.30;99.90
7204;DHT22;3643;52.460;13.322;2022-10-31T17:51:53;13.30;99.90
7204;DHT22;3643;52.460;13.322;2022-10-31T17:54:21;13.30;99.90
7204;DHT22;3643;52.460;13.322;2022-10-31T17:56:52;13.20;99.90
7204;DHT22;3643;52.460;13.322;2022-10-31T17:59:26;13.20;99.90
7204;DHT22;3643;52.460;13.322;2022-10-31T18:01:57;13.20;99.90
7204;DHT22;3643;52.460;13.322;2022-10-31T18:04:28;13.20;99.90
7204;DHT22;3643;52.460;13.322;2022-10-31T18:07:02;13.20;99.90
7204;DHT22;3643;52.460;13.322;2022-10-31T18:09:32;13.20;99.90
7204;DHT22;3643;52.460;13.322;2022-10-31T18:12:01;13.30;99.90
7204;DHT22;3643;52.460;13.322;2022-10-31T18:14:30;13.20;99.90
7204;DHT22;3643;52.460;13.322;2022-10-31T18:16:58;13.20;99.90
7204;DHT22;3643;52.460;13.322;2022-10-31T18:19:29;13.30;99.90
7204;DHT22;3643;52.460;13.322;2022-10-31T18:21:58;13.30;99.90
7204;DHT22;3643;52.460;13.322;2022-10-31T18:24:26;13.30;99.90
7204;DHT22;3643;52.460;13.322;2022-10-31T18:26:55;13.30;99.90
7204;DHT22;3643;52.460;13.322;2022-10-31T18:29:24;13.30;99.90
7204;DHT22;3643;52.460;13.322;2022-10-31T18:31:52;13.30;99.90
7204;DHT22;3643;52.460;13.322;2022-10-31T18:34:21;13.30;99.90
7204;DHT22;3643;52.460;13.322;2022-10-31T18:36:51;13.20;99.90
7204;DHT22;3643;52.460;13.322;2022-10-31T18:39:19;13.20;99.90
7204;DHT22;3643;52.460;13.322;2022-10-31T18:41:48;13.20;99.90
7204;DHT22;3643;52.460;13.322;2022-10-31T18:44:16;13.20;99.90
7204;DHT22;3643;52.460;13.322;2022-10-31T18:46:45;13.20;99.90
7204;DHT22;3643;52.460;13.322;2022-10-31T18:49:16;13.20;99.90
7204;DHT22;3643;52.460;13.322;2022-10-31T18:51:49;13.20;99.90
7204;DHT22;3643;52.460;13.322;2022-10-31T18:54:19;13.20;99.90
7204;DHT22;3643;52.460;13.322;2022-10-31T18:56:47;13.20;99.90
7204;DHT22;3643;52.460;13.322;2022-10-31T18:59:16;13.20;99.90
7204;DHT22;3643;52.460;13.322;2022-10-31T19:01:45;13.20;99.90
7204;DHT22;3643;52.460;13.322;2022-10-31T19:04:16;13.20;99.90
7204;DHT22;3643;52.460;13.322;2022-10-31T19:06:46;13.20;99.90
7204;DHT22;3643;52.460;13.322;2022-10-31T19:09:18;13.20;99.90
7204;DHT22;3643;52.460;13.322;2022-10-31T19:11:46;13.20;99.90
7204;DHT22;3643;52.460;13.322;2022-10-31T19:14:21;13.20;99.90
7204;DHT22;3643;52.460;13.322;2022-10-31T19:16:51;13.20;99.90
7204;DHT22;3643;52.460;13.322;2022-10-31T19:19:22;13.20;99.90
7204;DHT22;3643;52.460;13.322;2022-10-31T19:21:50;13.20;99.90
7204;DHT22;3643;52.460;13.322;2022-10-31T19:24:20;13.20;99.90
7204;DHT22;3643;52.460;13.322;2022-10-31T19:26:49;13.20;99.90
7204;DHT22;3643;52.460;13.322;2022-10-31T19:29:19;13.20;99.90
7204;DHT22;3643;52.460;13.322;2022-10-31T19:31:48;13.20;99.90
7204;DHT22;3643;52.460;13.322;2022-10-31T19:34:21;13.20;99.90
7204;DHT22;3643;52.460;13.322;2022-10-31T19:36:50;13.20;99.90
7204;DHT22;3643;52.460;13.322;2022-10-31T19:39:21;13.30;99.90
7204;DHT22;3643;52.460;13.322;2022-10-31T19:41:51;13.30;99.90
7204;DHT22;3643;52.460;13.322;2022-10-31T19:44:19;13.30;99.90
7204;DHT22;3643;52.460;13.322;2022-10-31T19:46:48;13.20;99.90
7204;DHT22;3643;52.460;13.322;2022-10-31T19:49:22;13.20;99.90
7204;DHT22;3643;52.460;13.322;2022-10-31T19:51:51;13.30;99.90
7204;DHT22;3643;52.460;13.322;2022-10-31T19:54:28;13.20;99.90
7204;DHT22;3643;52.460;13.322;2022-10-31T19:56:58;13.30;99.90
7204;DHT22;3643;52.460;13.322;2022-10-31T19:59:26;13.30;99.90
7204;DHT22;3643;52.460;13.322;2022-10-31T20:02:00;13.30;99.90
7204;DHT22;3643;52.460;13.322;2022-10-31T20:04:32;13.30;99.90
7204;DHT22;3643;52.460;13.322;2022-10-31T20:07:01;13.30;99.90
7204;DHT22;3643;52.460;13.322;2022-10-31T20:09:31;13.20;99.90
7204;DHT22;3643;52.460;13.322;2022-10-31T20:12:02;13.30;99.90
7204;DHT22;3643;52.460;13.322;2022-10-31T20:14:31;13.30;99.90
7204;DHT22;3643;52.460;13.322;2022-10-31T20:17:06;13.30;99.90
7204;DHT22;3643;52.460;13.322;2022-10-31T20:19:36;13.20;99.90
7204;DHT22;3643;52.460;13.322;2022-10-31T20:22:04;13.20;99.90